Crandall, Texas
Current Conditions -  °F | °C
As of 4:35 AM on Saturday 20 Dec 2014 (Local Time) from KHQZ Reporting Station
Overcast Overcast  
Wind Chill:   Ceiling: 200
Heat Index:   Visibility: 1.5mi
Dew Point:   Wind: 6mph
Humidity: 97%   Direction: 350°N
Pressure: 30.21"   Gusts: NA
Location:  32.63°N, 96.46°W
Report Text: KHQZ 201035Z AUTO 35005KT 1 1/2SM OVC002 07/07 A3021 RMK AO1 T00730068
Loading
Personal Weather Stations






























Interactive Weather Map New forecast layout! Learn more

10-Day Weather Forecast

Advertisements
Track Severe Weather on mobile